San Luis, Argentina
Current Conditions -  °F | °C
As of 7:00 PM on Tuesday 21 Oct 2014 (Local Time) from SAOC Reporting Station
Clear Clear  
Wind Chill: 84°   Ceiling: Unl
Heat Index: 84°   Visibility: 6mi
Dew Point: 57°   Wind: 30mph
Humidity: 40%   Direction: 360°N
Pressure: 29.85"   Gusts: 44mph
Location:  33.31°S, 66.35°W
Report Text: SAOC 212200Z 36026G38KT CAVOK 29/14 Q1011
Loading
Personal Weather Stations






























Interactive Weather Map
Tropical Storm Tracking
New forecast layout! Learn more

10-Day Weather Forecast

Advertisements
Track Severe Weather on mobile